Time;durP1;ratioP1;P1;durP2;ratioP2;P2;SDS_P1;SDS_P2;PMS_P1;PMS_P2;Temp;Humidity;BMP_temperature;BMP_pressure;BME280_temperature;BME280_humidity;BME280_pressure;Samples;Min_cycle;Max_cycle;Signal;HPM_P1;HPM_P2
2021/05/21 00:00:10;;;;;;;6.30;3.47;;;16.30;75.30;;;;;;5072526;28;20040;-54
2021/05/21 00:02:37;;;;;;;6.95;3.10;;;16.30;75.50;;;;;;5070860;28;20036;-53
2021/05/21 00:05:05;;;;;;;8.93;3.47;;;16.30;75.50;;;;;;5072881;28;20430;-52
2021/05/21 00:07:32;;;;;;;6.18;3.60;;;16.40;74.70;;;;;;5072855;28;20096;-53
2021/05/21 00:10:00;;;;;;;7.03;3.15;;;16.40;74.60;;;;;;5072823;28;20090;-53
2021/05/21 00:12:27;;;;;;;5.53;3.17;;;16.40;74.90;;;;;;5072703;28;20123;-54
2021/05/21 00:14:54;;;;;;;6.50;3.92;;;16.50;74.90;;;;;;5072717;28;20026;-60
2021/05/21 00:17:22;;;;;;;6.80;3.22;;;16.50;74.60;;;;;;5072390;28;20029;-52
2021/05/21 00:19:49;;;;;;;5.35;3.30;;;16.50;74.20;;;;;;5072667;28;20024;-52
2021/05/21 00:22:17;;;;;;;5.97;3.53;;;16.50;74.30;;;;;;5072669;28;20044;-57
2021/05/21 00:24:44;;;;;;;5.95;3.58;;;16.60;75.90;;;;;;5072599;28;20016;-54
2021/05/21 00:27:11;;;;;;;4.05;2.72;;;16.60;76.20;;;;;;5072362;28;20486;-56
2021/05/21 00:29:39;;;;;;;7.38;2.90;;;16.70;76.20;;;;;;5072392;28;20160;-60
2021/05/21 00:32:06;;;;;;;6.22;3.25;;;16.70;76.10;;;;;;5072438;28;20047;-59
2021/05/21 00:34:34;;;;;;;6.80;3.60;;;16.80;74.80;;;;;;5072044;28;20024;-53
2021/05/21 00:37:01;;;;;;;9.75;3.13;;;16.80;74.80;;;;;;5070815;28;20025;-55
2021/05/21 00:39:28;;;;;;;6.25;2.85;;;16.80;74.40;;;;;;5072257;28;20036;-57
2021/05/21 00:41:56;;;;;;;7.80;3.80;;;16.90;76.20;;;;;;5070680;28;20141;-59
2021/05/21 00:44:23;;;;;;;6.43;3.08;;;16.90;75.70;;;;;;5071582;28;20035;-57
2021/05/21 00:46:51;;;;;;;10.20;3.10;;;16.90;76.00;;;;;;5071869;28;20510;-57
2021/05/21 00:49:18;;;;;;;5.85;3.00;;;17.00;77.70;;;;;;5071759;28;20183;-59
2021/05/21 00:51:47;;;;;;;10.23;3.20;;;17.10;75.50;;;;;;5072187;28;20028;-60
2021/05/21 00:54:18;;;;;;;6.63;2.53;;;17.10;75.60;;;;;;5071833;28;20029;-56
2021/05/21 00:56:48;;;;;;;6.57;2.83;;;17.20;78.00;;;;;;5071758;28;20084;-54
2021/05/21 00:59:16;;;;;;;10.73;3.85;;;17.20;74.30;;;;;;5071924;28;20073;-56
2021/05/21 01:01:47;;;;;;;12.00;3.65;;;17.30;76.40;;;;;;5071811;28;20051;-59
2021/05/21 01:04:14;;;;;;;9.30;3.30;;;17.30;75.90;;;;;;5072171;28;20042;-58
2021/05/21 01:06:42;;;;;;;7.45;3.70;;;17.30;77.70;;;;;;5070318;28;20824;-58
2021/05/21 01:09:10;;;;;;;7.03;3.17;;;17.40;75.80;;;;;;5071816;28;20021;-58
2021/05/21 01:11:37;;;;;;;6.15;3.40;;;17.30;74.60;;;;;;5071780;28;20135;-55
2021/05/21 01:14:05;;;;;;;8.95;3.55;;;17.40;73.30;;;;;;5071733;28;20028;-59
2021/05/21 01:16:32;;;;;;;6.03;2.75;;;17.40;73.90;;;;;;5071904;28;20100;-56
2021/05/21 01:19:04;;;;;;;5.28;3.08;;;17.50;73.40;;;;;;5071984;28;20107;-59
2021/05/21 01:21:38;;;;;;;6.70;3.42;;;17.40;72.40;;;;;;5070564;28;20033;-56
2021/05/21 01:24:07;;;;;;;6.03;3.13;;;17.40;76.10;;;;;;5072146;28;20039;-59
2021/05/21 01:26:35;;;;;;;7.32;2.92;;;17.40;73.80;;;;;;5071698;28;20028;-52
2021/05/21 01:29:03;;;;;;;7.13;2.72;;;17.40;75.40;;;;;;5072075;28;20020;-60
2021/05/21 01:31:31;;;;;;;7.45;2.97;;;17.40;74.20;;;;;;5072163;28;20037;-59
2021/05/21 01:33:58;;;;;;;7.25;3.10;;;17.40;74.80;;;;;;5071876;28;20394;-62
2021/05/21 01:36:26;;;;;;;3.50;2.42;;;17.40;77.70;;;;;;5071487;28;20051;-55
2021/05/21 01:39:12;;;;;;;10.88;3.85;;;17.50;74.90;;;;;;5071748;28;20020;-54
2021/05/21 01:41:41;;;;;;;4.90;3.13;;;17.40;74.60;;;;;;5071921;28;20037;-52
2021/05/21 01:44:10;;;;;;;6.95;2.88;;;17.40;74.30;;;;;;5071731;28;20106;-53
2021/05/21 01:46:38;;;;;;;5.85;2.50;;;17.40;74.20;;;;;;5071544;28;20573;-56
2021/05/21 01:49:06;;;;;;;4.28;2.72;;;17.40;73.70;;;;;;5072156;28;20060;-54
2021/05/21 01:51:34;;;;;;;3.67;2.28;;;17.40;74.20;;;;;;5071412;28;20035;-57
2021/05/21 01:54:16;;;;;;;5.22;2.78;;;17.40;75.10;;;;;;5071267;28;20095;-54
2021/05/21 01:56:47;;;;;;;5.38;2.83;;;17.40;75.10;;;;;;5071202;28;20544;-58
2021/05/21 01:59:15;;;;;;;6.38;2.72;;;17.40;74.80;;;;;;5071227;28;20112;-56
2021/05/21 02:01:42;;;;;;;4.55;2.60;;;17.40;74.90;;;;;;5074604;28;20037;-63
2021/05/21 02:04:10;;;;;;;6.53;3.20;;;17.40;74.40;;;;;;5074708;28;20411;-61
2021/05/21 02:06:40;;;;;;;8.75;2.75;;;17.30;75.00;;;;;;5075050;28;20036;-53
2021/05/21 02:09:10;;;;;;;5.15;2.80;;;17.40;75.80;;;;;;5075217;28;20071;-58
2021/05/21 02:11:38;;;;;;;5.70;2.40;;;17.40;74.90;;;;;;5074896;28;20052;-53
2021/05/21 02:14:06;;;;;;;8.70;2.85;;;17.40;74.80;;;;;;5074892;28;20112;-57
2021/05/21 02:16:33;;;;;;;6.68;2.83;;;17.40;75.50;;;;;;5074433;28;20028;-54
2021/05/21 02:19:00;;;;;;;6.97;3.25;;;17.30;75.00;;;;;;5074861;28;20025;-56
2021/05/21 02:21:32;;;;;;;6.55;3.28;;;17.40;75.20;;;;;;5074652;28;20090;-59
2021/05/21 02:24:05;;;;;;;5.60;2.57;;;17.40;77.60;;;;;;5074563;28;20025;-58
2021/05/21 02:26:34;;;;;;;4.50;2.80;;;17.40;75.80;;;;;;5074652;28;20029;-59
2021/05/21 02:29:02;;;;;;;5.22;2.53;;;17.40;76.40;;;;;;5074641;28;20044;-58
2021/05/21 02:31:29;;;;;;;6.70;2.80;;;17.40;76.50;;;;;;5074487;28;20063;-58
2021/05/21 02:33:56;;;;;;;4.07;2.08;;;17.40;76.40;;;;;;5074412;28;20098;-54
2021/05/21 02:36:24;;;;;;;5.38;2.95;;;17.30;76.30;;;;;;5074249;28;20105;-50
2021/05/21 02:38:51;;;;;;;8.95;3.15;;;17.30;76.60;;;;;;5074411;28;20107;-57
2021/05/21 02:41:19;;;;;;;6.07;3.20;;;17.30;75.40;;;;;;5074256;28;20115;-56
2021/05/21 02:43:46;;;;;;;4.55;2.60;;;17.30;77.40;;;;;;5074947;28;20017;-52
2021/05/21 02:46:14;;;;;;;6.85;3.05;;;17.30;76.10;;;;;;5072404;28;20024;-59
2021/05/21 02:48:41;;;;;;;5.20;2.80;;;17.30;75.80;;;;;;5073910;28;20050;-59
2021/05/21 02:51:08;;;;;;;6.30;2.97;;;17.30;75.60;;;;;;5074096;28;20036;-59
2021/05/21 02:53:36;;;;;;;4.25;2.30;;;17.30;74.70;;;;;;5073738;28;20095;-58
2021/05/21 02:56:03;;;;;;;6.50;3.00;;;17.30;75.00;;;;;;5074349;28;20078;-61
2021/05/21 02:58:31;;;;;;;4.82;2.75;;;17.30;74.80;;;;;;5074065;28;20056;-61
2021/05/21 03:00:58;;;;;;;7.38;3.35;;;17.30;76.20;;;;;;5072530;28;20033;-57
2021/05/21 03:03:25;;;;;;;6.38;2.58;;;17.30;77.00;;;;;;5073495;28;20348;-56
2021/05/21 03:05:55;;;;;;;5.53;2.50;;;17.30;76.90;;;;;;5074022;28;20434;-55
2021/05/21 03:08:22;;;;;;;5.70;2.55;;;17.30;78.20;;;;;;5072662;28;20017;-59
2021/05/21 03:10:50;;;;;;;3.75;2.28;;;17.30;76.20;;;;;;5073789;28;20491;-54
2021/05/21 03:13:18;;;;;;;6.93;2.88;;;17.30;76.60;;;;;;5074196;28;20090;-57
2021/05/21 03:15:46;;;;;;;4.65;2.95;;;17.30;75.90;;;;;;5074168;28;20040;-58
2021/05/21 03:18:18;;;;;;;5.60;2.35;;;17.30;77.30;;;;;;5072664;28;20036;-56
2021/05/21 03:20:45;;;;;;;8.48;3.08;;;17.30;77.90;;;;;;5073012;28;20090;-56
2021/05/21 03:23:13;;;;;;;8.18;2.72;;;17.30;77.20;;;;;;5073240;28;20032;-54
2021/05/21 03:25:42;;;;;;;6.43;2.85;;;17.30;78.10;;;;;;5074015;28;20028;-56
2021/05/21 03:28:10;;;;;;;6.15;2.60;;;17.30;77.10;;;;;;5072227;28;20055;-54
2021/05/21 03:30:39;;;;;;;4.43;2.72;;;17.40;77.70;;;;;;5073381;28;20107;-57
2021/05/21 03:33:08;;;;;;;5.57;2.70;;;17.30;77.30;;;;;;5073668;28;20375;-53
2021/05/21 03:35:37;;;;;;;5.57;2.53;;;17.40;76.60;;;;;;5073234;28;20025;-56
2021/05/21 03:38:05;;;;;;;3.63;2.17;;;17.40;77.30;;;;;;5072691;28;20394;-56
2021/05/21 03:40:34;;;;;;;8.00;2.72;;;17.30;76.50;;;;;;5071750;28;20032;-57
2021/05/21 03:43:02;;;;;;;3.75;2.13;;;17.40;77.80;;;;;;5073295;28;20108;-53
2021/05/21 03:45:30;;;;;;;5.95;2.53;;;17.40;75.90;;;;;;5072814;28;20078;-54
2021/05/21 03:47:57;;;;;;;5.38;2.55;;;17.30;76.20;;;;;;5072021;28;20020;-57
2021/05/21 03:50:25;;;;;;;4.32;2.50;;;17.30;77.20;;;;;;5073052;28;20419;-54
2021/05/21 03:52:52;;;;;;;5.00;2.95;;;17.30;76.20;;;;;;5071734;28;20363;-58
2021/05/21 03:55:21;;;;;;;3.25;2.22;;;17.30;76.70;;;;;;5072956;28;20028;-53
2021/05/21 03:57:49;;;;;;;3.70;2.10;;;17.30;76.10;;;;;;5073331;28;20031;-54
2021/05/21 04:00:22;;;;;;;5.40;2.42;;;17.30;76.20;;;;;;5072670;28;20044;-56
2021/05/21 04:02:51;;;;;;;7.55;3.38;;;17.30;76.10;;;;;;5070113;28;20039;-51
2021/05/21 04:05:19;;;;;;;5.93;2.53;;;17.30;77.10;;;;;;5072459;28;20024;-56
2021/05/21 04:07:49;;;;;;;5.03;2.58;;;17.30;77.80;;;;;;5072537;28;20052;-55
2021/05/21 04:10:17;;;;;;;5.07;2.33;;;17.30;77.90;;;;;;5072426;28;20041;-57
2021/05/21 04:12:45;;;;;;;3.38;2.20;;;17.30;76.10;;;;;;5071159;28;20040;-53
2021/05/21 04:15:13;;;;;;;6.82;2.90;;;17.30;76.00;;;;;;5072786;28;20104;-56
2021/05/21 04:17:41;;;;;;;5.15;2.42;;;17.30;76.10;;;;;;5072893;28;20562;-52
2021/05/21 04:20:08;;;;;;;5.68;2.33;;;17.30;76.00;;;;;;5072221;28;20054;-60
2021/05/21 04:22:36;;;;;;;6.85;3.40;;;17.40;76.10;;;;;;5071081;28;20152;-58
2021/05/21 04:25:04;;;;;;;3.80;2.42;;;17.30;76.70;;;;;;5072115;28;20051;-56
2021/05/21 04:27:32;;;;;;;5.07;2.55;;;17.30;75.70;;;;;;5072432;28;20036;-59
2021/05/21 04:29:59;;;;;;;4.70;2.25;;;17.30;76.40;;;;;;5072235;28;20060;-56
2021/05/21 04:32:26;;;;;;;6.65;2.72;;;17.30;77.50;;;;;;5072169;28;20094;-54
2021/05/21 04:34:54;;;;;;;3.90;2.08;;;17.40;76.20;;;;;;5072297;28;20024;-64
2021/05/21 04:37:21;;;;;;;5.25;2.30;;;17.40;76.40;;;;;;5072348;28;20121;-55
2021/05/21 04:39:48;;;;;;;6.07;2.95;;;17.40;76.50;;;;;;5072582;28;20100;-48
2021/05/21 04:42:16;;;;;;;4.13;2.40;;;17.40;76.50;;;;;;5070689;28;20430;-54
2021/05/21 04:44:44;;;;;;;3.22;2.17;;;17.40;76.80;;;;;;5071383;28;20032;-52
2021/05/21 04:47:14;;;;;;;6.25;2.70;;;17.40;76.30;;;;;;5072027;28;20388;-56
2021/05/21 04:49:42;;;;;;;4.45;2.42;;;17.40;76.50;;;;;;5072531;28;20442;-54
2021/05/21 04:52:10;;;;;;;8.20;2.70;;;17.40;77.20;;;;;;5070776;28;20155;-58
2021/05/21 04:54:39;;;;;;;6.00;2.45;;;17.40;76.60;;;;;;5071968;28;20028;-61
2021/05/21 04:57:07;;;;;;;5.90;2.80;;;17.40;77.60;;;;;;5071017;28;20119;-54
2021/05/21 04:59:34;;;;;;;6.90;2.72;;;17.40;77.30;;;;;;5070795;28;20493;-55
2021/05/21 05:02:03;;;;;;;6.10;2.28;;;17.40;77.60;;;;;;5072057;28;20075;-63
2021/05/21 05:04:31;;;;;;;5.07;2.05;;;17.40;76.40;;;;;;5070649;28;20577;-60
2021/05/21 05:06:59;;;;;;;5.00;2.25;;;17.40;76.90;;;;;;5071689;28;20166;-52
2021/05/21 05:09:26;;;;;;;5.22;2.60;;;17.40;76.60;;;;;;5071392;28;20467;-60
2021/05/21 05:11:55;;;;;;;7.43;2.00;;;17.40;76.30;;;;;;5071500;28;20169;-57
2021/05/21 05:14:23;;;;;;;4.80;2.28;;;17.40;76.80;;;;;;5069944;28;20028;-52
2021/05/21 05:16:50;;;;;;;4.65;2.25;;;17.40;76.60;;;;;;5070613;28;20268;-57
2021/05/21 05:19:19;;;;;;;4.80;2.55;;;17.40;76.30;;;;;;5071373;28;20029;-61
2021/05/21 05:21:46;;;;;;;5.30;2.85;;;17.40;76.70;;;;;;5071933;28;20115;-54
2021/05/21 05:24:19;;;;;;;5.53;2.28;;;17.40;76.30;;;;;;5072119;28;20027;-54
2021/05/21 05:26:47;;;;;;;6.03;2.17;;;17.50;76.40;;;;;;5071794;28;20020;-57
2021/05/21 05:29:18;;;;;;;5.55;2.60;;;17.50;76.60;;;;;;5071717;28;20024;-57
2021/05/21 05:31:49;;;;;;;5.70;2.75;;;17.50;76.40;;;;;;5071929;28;20101;-61
2021/05/21 05:34:16;;;;;;;4.45;2.10;;;17.50;77.30;;;;;;5071855;28;20056;-61
2021/05/21 05:36:49;;;;;;;6.03;2.08;;;17.50;76.50;;;;;;5075263;28;20024;-56
2021/05/21 05:39:17;;;;;;;4.65;2.50;;;17.50;76.60;;;;;;5074289;28;20033;-56
2021/05/21 05:41:44;;;;;;;6.45;2.60;;;17.50;76.50;;;;;;5075867;28;20043;-60
2021/05/21 05:44:11;;;;;;;3.83;2.22;;;17.50;76.40;;;;;;5075320;28;20383;-55
2021/05/21 05:46:39;;;;;;;9.65;2.88;;;17.50;76.40;;;;;;5074853;28;20021;-58
2021/05/21 05:49:06;;;;;;;4.55;2.20;;;17.50;76.30;;;;;;5075306;28;20094;-62
2021/05/21 05:51:33;;;;;;;11.70;3.35;;;17.50;76.70;;;;;;5075215;28;20023;-62
2021/05/21 05:54:01;;;;;;;8.27;2.30;;;17.50;77.70;;;;;;5075000;28;20025;-56
2021/05/21 05:56:28;;;;;;;4.57;2.22;;;17.50;76.50;;;;;;5075224;28;20080;-59
2021/05/21 05:58:55;;;;;;;6.05;2.95;;;17.50;76.60;;;;;;5075193;28;20516;-55
2021/05/21 06:01:23;;;;;;;5.15;2.10;;;17.50;76.30;;;;;;5075343;28;20122;-58
2021/05/21 06:03:50;;;;;;;4.35;2.10;;;17.50;76.60;;;;;;5075531;28;20024;-58
2021/05/21 06:06:18;;;;;;;6.50;2.47;;;17.50;76.20;;;;;;5075028;28;20036;-60
2021/05/21 06:08:45;;;;;;;6.70;2.47;;;17.60;76.40;;;;;;5074729;28;20032;-59
2021/05/21 06:11:12;;;;;;;6.40;2.00;;;17.60;76.40;;;;;;5074696;28;20430;-61
2021/05/21 06:13:42;;;;;;;8.45;2.47;;;17.60;76.50;;;;;;5075133;28;20024;-60
2021/05/21 06:16:09;;;;;;;5.65;2.47;;;17.60;76.30;;;;;;5074875;28;20047;-60
2021/05/21 06:18:39;;;;;;;8.70;2.58;;;17.50;76.20;;;;;;5074750;28;20052;-57
2021/05/21 06:21:06;;;;;;;4.18;2.10;;;17.60;76.30;;;;;;5074936;28;20487;-58
2021/05/21 06:23:33;;;;;;;5.97;2.53;;;17.50;76.20;;;;;;5074706;28;20028;-56
2021/05/21 06:28:47;;;;;;;10.35;3.60;;;17.50;76.40;;;;;;5074330;28;20090;-58
2021/05/21 06:31:14;;;;;;;4.78;2.22;;;17.50;76.30;;;;;;5073714;28;20024;-64
2021/05/21 06:33:41;;;;;;;6.03;2.67;;;17.50;76.40;;;;;;5073837;28;20021;-58
2021/05/21 06:36:09;;;;;;;5.10;2.67;;;17.50;76.60;;;;;;5074384;28;20029;-58
2021/05/21 06:38:37;;;;;;;3.70;2.00;;;17.50;76.50;;;;;;5074225;28;20120;-60
2021/05/21 06:41:05;;;;;;;5.00;2.75;;;17.50;76.50;;;;;;5073892;28;20051;-59
2021/05/21 06:43:33;;;;;;;7.60;2.20;;;17.50;76.60;;;;;;5074552;28;20082;-56
2021/05/21 06:46:01;;;;;;;6.93;2.13;;;17.50;76.50;;;;;;5073422;28;20450;-64
2021/05/21 06:48:30;;;;;;;4.53;2.08;;;17.50;76.70;;;;;;5073870;28;20032;-63
2021/05/21 06:51:03;;;;;;;5.95;2.50;;;17.50;76.80;;;;;;5074302;28;20025;-63
2021/05/21 06:53:31;;;;;;;5.70;2.20;;;17.50;76.80;;;;;;5073888;28;20020;-52
2021/05/21 06:55:58;;;;;;;5.05;2.30;;;17.50;76.80;;;;;;5073645;28;20420;-57
2021/05/21 06:58:27;;;;;;;5.95;1.98;;;17.50;76.80;;;;;;5073553;28;20025;-57
2021/05/21 07:00:58;;;;;;;4.80;2.17;;;17.50;77.10;;;;;;5072070;28;20463;-58
2021/05/21 07:03:28;;;;;;;4.35;2.22;;;17.40;76.90;;;;;;5053192;28;20056;-60
2021/05/21 07:05:56;;;;;;;4.78;2.35;;;17.50;76.90;;;;;;5053361;28;20053;-59
2021/05/21 07:08:25;;;;;;;5.80;2.47;;;17.40;76.80;;;;;;5052805;28;20029;-59
2021/05/21 07:10:52;;;;;;;6.53;2.53;;;17.40;76.90;;;;;;5052358;28;20079;-64
2021/05/21 07:13:20;;;;;;;7.65;2.30;;;17.40;76.90;;;;;;5053554;28;20063;-61
2021/05/21 07:15:48;;;;;;;7.97;2.40;;;17.40;77.00;;;;;;5053916;28;20029;-60
2021/05/21 07:18:15;;;;;;;7.60;2.70;;;17.50;77.00;;;;;;5053708;28;20029;-60
2021/05/21 07:20:45;;;;;;;5.38;2.10;;;17.40;77.00;;;;;;5053191;28;20025;-63
2021/05/21 07:23:13;;;;;;;6.00;2.28;;;17.40;77.00;;;;;;5068906;28;20028;-55
2021/05/21 07:25:41;;;;;;;5.70;2.30;;;17.50;77.00;;;;;;5051861;28;20110;-57
2021/05/21 07:28:08;;;;;;;4.47;2.40;;;17.50;77.10;;;;;;5053315;28;20111;-57
2021/05/21 07:30:36;;;;;;;5.30;2.20;;;17.50;77.10;;;;;;5053211;28;20025;-63
2021/05/21 07:33:03;;;;;;;3.90;2.03;;;17.50;77.00;;;;;;5053591;28;20103;-61
2021/05/21 07:35:31;;;;;;;6.22;2.38;;;17.50;77.20;;;;;;5053241;28;20399;-57
2021/05/21 07:37:58;;;;;;;6.63;2.60;;;17.50;77.00;;;;;;5051650;28;20056;-61
2021/05/21 07:40:25;;;;;;;6.00;1.88;;;17.50;77.70;;;;;;5052718;28;20021;-63
2021/05/21 07:42:53;;;;;;;4.75;2.05;;;17.40;77.00;;;;;;5053362;28;20094;-61
2021/05/21 07:45:21;;;;;;;6.63;2.30;;;17.50;77.10;;;;;;5053045;28;20053;-61
2021/05/21 07:47:49;;;;;;;6.20;2.63;;;17.40;77.00;;;;;;5053353;28;20025;-57
2021/05/21 07:50:16;;;;;;;7.32;2.38;;;17.40;77.00;;;;;;5052928;28;20112;-62
2021/05/21 07:52:44;;;;;;;4.38;1.70;;;17.40;77.10;;;;;;5052800;28;20037;-55
2021/05/21 07:55:13;;;;;;;9.50;2.70;;;17.50;77.10;;;;;;5052795;28;20032;-58
2021/05/21 07:57:40;;;;;;;4.40;2.15;;;17.40;77.00;;;;;;5051838;28;20036;-59
2021/05/21 08:00:09;;;;;;;4.28;2.15;;;17.40;77.20;;;;;;5053050;28;20124;-58
2021/05/21 08:02:38;;;;;;;5.05;2.15;;;17.40;77.10;;;;;;5051922;28;20041;-60
2021/05/21 08:05:06;;;;;;;5.05;2.47;;;17.40;77.10;;;;;;5052209;28;20104;-60
2021/05/21 08:07:34;;;;;;;6.55;2.08;;;17.40;77.20;;;;;;5052271;28;20324;-60
2021/05/21 08:10:02;;;;;;;6.18;2.08;;;17.50;77.20;;;;;;5052414;28;20090;-58
2021/05/21 08:12:29;;;;;;;5.40;1.88;;;17.40;77.20;;;;;;5052518;28;20036;-62
2021/05/21 08:14:57;;;;;;;5.88;2.25;;;17.40;77.30;;;;;;5052432;28;20044;-55
2021/05/21 08:17:24;;;;;;;6.80;2.38;;;17.40;77.20;;;;;;5052780;28;20463;-61
2021/05/21 08:19:52;;;;;;;8.30;2.63;;;17.40;77.30;;;;;;5051940;28;20036;-57
2021/05/21 08:22:19;;;;;;;3.58;1.70;;;17.40;77.30;;;;;;5052065;28;20028;-59
2021/05/21 08:24:47;;;;;;;4.78;2.15;;;17.40;77.30;;;;;;5052344;28;20021;-59
2021/05/21 08:27:14;;;;;;;6.85;2.60;;;17.40;77.30;;;;;;5052368;28;20021;-55
2021/05/21 08:29:41;;;;;;;6.75;1.63;;;17.40;77.30;;;;;;5052406;28;20025;-59
2021/05/21 08:32:08;;;;;;;3.97;1.88;;;17.40;77.30;;;;;;5052404;28;20403;-59
2021/05/21 08:34:36;;;;;;;5.68;1.92;;;17.40;77.40;;;;;;5051703;28;20043;-53
2021/05/21 08:37:03;;;;;;;6.45;2.10;;;17.40;77.40;;;;;;5050976;28;20029;-56
2021/05/21 08:39:31;;;;;;;5.30;2.08;;;17.40;77.40;;;;;;5052238;28;20044;-60
2021/05/21 08:41:59;;;;;;;3.90;1.67;;;17.40;77.50;;;;;;5051699;28;20414;-59
2021/05/21 08:44:30;;;;;;;3.78;1.92;;;17.30;77.40;;;;;;5052106;28;20532;-60
2021/05/21 08:47:00;;;;;;;7.10;2.78;;;17.40;77.50;;;;;;5052245;28;20427;-59
2021/05/21 08:49:28;;;;;;;6.30;2.30;;;17.40;77.50;;;;;;5052158;28;20063;-61
2021/05/21 08:51:57;;;;;;;4.03;1.80;;;17.40;77.60;;;;;;5051862;28;20021;-58
2021/05/21 08:54:29;;;;;;;3.55;1.85;;;17.30;77.50;;;;;;5051966;28;20029;-55
2021/05/21 08:56:56;;;;;;;4.78;2.40;;;17.30;77.50;;;;;;5051713;28;20017;-58
2021/05/21 08:59:23;;;;;;;11.65;2.28;;;17.30;77.60;;;;;;5051905;28;20048;-62
2021/05/21 09:01:57;;;;;;;5.40;2.22;;;17.30;77.50;;;;;;5051577;28;20377;-62
2021/05/21 09:04:42;;;;;;;6.18;2.33;;;17.30;77.60;;;;;;5051493;28;20021;-61
2021/05/21 09:07:25;;;;;;;3.92;1.85;;;17.30;77.70;;;;;;5051913;28;20056;-58
2021/05/21 09:09:54;;;;;;;5.18;2.13;;;17.30;77.70;;;;;;5051071;28;20044;-55
2021/05/21 09:12:25;;;;;;;5.80;2.17;;;17.30;77.70;;;;;;5052068;28;20064;-60
2021/05/21 09:15:16;;;;;;;5.00;2.13;;;17.20;77.70;;;;;;5050626;28;20040;-58
2021/05/21 09:18:01;;;;;;;5.20;2.20;;;17.20;77.70;;;;;;5052132;28;20057;-59
2021/05/21 09:20:36;;;;;;;8.70;2.25;;;17.20;77.70;;;;;;5051417;28;20032;-58
2021/05/21 09:23:10;;;;;;;7.20;2.00;;;17.20;77.70;;;;;;5050761;28;20029;-59
2021/05/21 09:25:49;;;;;;;5.55;2.15;;;17.20;77.80;;;;;;5052203;28;20023;-55
2021/05/21 09:28:35;;;;;;;3.70;1.83;;;17.20;77.80;;;;;;5051859;28;20045;-60
2021/05/21 09:31:18;;;;;;;6.60;2.00;;;17.20;77.80;;;;;;5052427;28;20071;-58
2021/05/21 09:33:48;;;;;;;5.22;2.00;;;17.20;77.90;;;;;;5052051;28;20476;-61
2021/05/21 09:36:31;;;;;;;5.13;1.83;;;17.20;77.90;;;;;;5051430;28;20476;-58
2021/05/21 09:39:00;;;;;;;4.28;1.55;;;17.20;77.90;;;;;;5051971;28;20032;-61
2021/05/21 09:41:28;;;;;;;4.15;1.77;;;17.10;77.80;;;;;;5051416;28;20040;-54
2021/05/21 09:43:59;;;;;;;3.88;1.95;;;17.10;77.80;;;;;;5051886;28;20455;-60
2021/05/21 09:46:41;;;;;;;4.22;1.90;;;17.10;77.90;;;;;;5051506;28;20391;-58
2021/05/21 09:49:27;;;;;;;6.20;2.13;;;17.10;77.90;;;;;;5051719;28;20036;-56
2021/05/21 09:51:57;;;;;;;4.35;2.15;;;17.10;77.90;;;;;;5051908;28;20500;-59
2021/05/21 09:54:47;;;;;;;6.57;2.42;;;17.10;77.90;;;;;;5051510;28;20025;-62
2021/05/21 09:57:15;;;;;;;3.80;1.58;;;17.10;77.90;;;;;;5051663;28;20025;-56
2021/05/21 09:59:45;;;;;;;4.65;2.00;;;17.10;77.90;;;;;;5051429;28;20371;-54
2021/05/21 10:02:30;;;;;;;6.20;2.03;;;17.10;78.00;;;;;;5050984;28;20043;-59
2021/05/21 10:04:59;;;;;;;6.55;2.65;;;17.00;77.90;;;;;;5066700;28;20097;-57
2021/05/21 10:07:27;;;;;;;6.10;2.40;;;17.00;77.90;;;;;;5051866;28;20138;-56
2021/05/21 10:09:55;;;;;;;2.90;2.05;;;17.00;77.90;;;;;;5051242;28;20033;-61
2021/05/21 10:12:24;;;;;;;4.05;1.63;;;17.00;77.90;;;;;;5051499;28;20132;-54
2021/05/21 10:14:52;;;;;;;8.13;2.50;;;17.00;77.90;;;;;;5051645;28;20028;-62
2021/05/21 10:17:23;;;;;;;5.82;2.22;;;17.00;78.00;;;;;;5051138;28;20059;-52
2021/05/21 10:19:56;;;;;;;2.80;1.98;;;17.00;78.00;;;;;;5051283;28;20504;-58
2021/05/21 10:22:41;;;;;;;8.13;2.47;;;16.90;78.00;;;;;;5054259;28;20570;-57
2021/05/21 10:25:39;;;;;;;5.15;2.25;;;16.90;78.00;;;;;;5055176;28;20021;-60
2021/05/21 10:28:09;;;;;;;4.22;1.88;;;16.90;78.10;;;;;;5046755;28;20083;-63
2021/05/21 10:30:37;;;;;;;3.33;1.50;;;16.90;78.10;;;;;;5054977;28;20021;-62
2021/05/21 10:33:28;;;;;;;3.97;2.35;;;16.90;78.10;;;;;;5055014;28;20021;-60
2021/05/21 10:36:24;;;;;;;4.38;2.05;;;16.90;78.20;;;;;;5054798;28;20426;-61
2021/05/21 10:39:21;;;;;;;4.32;1.98;;;16.80;78.10;;;;;;5050498;28;20115;-62
2021/05/21 10:42:00;;;;;;;5.53;1.70;;;16.80;78.20;;;;;;5045991;28;20173;-57
2021/05/21 10:44:50;;;;;;;5.30;2.55;;;16.80;78.30;;;;;;5054620;28;20059;-59
2021/05/21 10:47:17;;;;;;;5.55;2.40;;;16.70;78.20;;;;;;5055121;28;20033;-55
2021/05/21 10:49:53;;;;;;;5.45;2.35;;;16.70;78.20;;;;;;5054706;28;20044;-58
2021/05/21 10:52:22;;;;;;;6.20;2.30;;;16.70;78.20;;;;;;5054678;28;20494;-60
2021/05/21 10:54:53;;;;;;;5.20;2.00;;;16.70;78.30;;;;;;5054768;28;20033;-61
2021/05/21 10:57:26;;;;;;;4.15;2.05;;;16.70;78.30;;;;;;5054506;28;20029;-62
2021/05/21 10:59:55;;;;;;;8.75;2.67;;;16.70;78.30;;;;;;5054284;28;20032;-58
2021/05/21 11:02:26;;;;;;;4.47;2.05;;;16.70;78.40;;;;;;5053822;28;20059;-56
2021/05/21 11:04:54;;;;;;;6.03;2.22;;;16.70;78.40;;;;;;5053979;28;20347;-62
2021/05/21 11:07:39;;;;;;;8.18;3.03;;;16.70;78.40;;;;;;5053823;28;20024;-64
2021/05/21 11:10:08;;;;;;;4.35;1.85;;;16.70;78.40;;;;;;5053735;28;20428;-59
2021/05/21 11:13:05;;;;;;;5.05;2.22;;;16.60;78.40;;;;;;5053583;28;20052;-57
2021/05/21 11:15:45;;;;;;;4.95;1.98;;;16.60;78.70;;;;;;5054064;28;20021;-58
2021/05/21 11:18:22;;;;;;;5.40;2.17;;;16.60;78.50;;;;;;5054124;28;20087;-60
2021/05/21 11:21:12;;;;;;;4.75;2.15;;;16.60;78.60;;;;;;5052803;28;20047;-58
2021/05/21 11:23:48;;;;;;;4.25;2.40;;;16.60;78.60;;;;;;5054119;28;20399;-60
2021/05/21 11:26:18;;;;;;;7.00;2.83;;;16.60;78.60;;;;;;5053867;28;20032;-62
2021/05/21 11:28:51;;;;;;;4.75;2.35;;;16.60;78.60;;;;;;5053630;28;20025;-62
2021/05/21 11:31:27;;;;;;;3.88;1.80;;;16.50;78.50;;;;;;5054112;28;20116;-61
2021/05/21 11:33:58;;;;;;;5.07;2.05;;;16.50;78.60;;;;;;5053936;28;20066;-62
2021/05/21 11:36:31;;;;;;;6.40;2.78;;;16.50;78.60;;;;;;5053781;28;20027;-62
2021/05/21 11:38:59;;;;;;;4.13;1.75;;;16.50;78.60;;;;;;5054017;28;20035;-63
2021/05/21 11:41:37;;;;;;;3.53;1.83;;;16.50;78.60;;;;;;5053718;28;20041;-62
2021/05/21 11:44:10;;;;;;;5.78;2.60;;;16.50;78.60;;;;;;5053670;28;20025;-64
2021/05/21 11:46:39;;;;;;;4.78;2.20;;;16.50;78.60;;;;;;5053362;28;20082;-60
2021/05/21 11:49:12;;;;;;;5.30;2.85;;;16.50;78.70;;;;;;5053304;28;20031;-57
2021/05/21 11:51:39;;;;;;;5.05;2.70;;;16.50;78.70;;;;;;5053410;28;20036;-59
2021/05/21 11:54:07;;;;;;;5.82;2.03;;;16.50;78.60;;;;;;5053465;28;20028;-58
2021/05/21 11:56:37;;;;;;;4.97;2.47;;;16.40;78.60;;;;;;5053209;28;20029;-57
2021/05/21 11:59:10;;;;;;;6.00;3.05;;;16.40;78.70;;;;;;5053909;28;20033;-56
2021/05/21 12:01:43;;;;;;;4.35;2.30;;;16.40;78.70;;;;;;5053643;28;20029;-61
2021/05/21 12:04:11;;;;;;;6.03;2.72;;;16.40;78.80;;;;;;5053284;28;20037;-60
2021/05/21 12:06:40;;;;;;;5.85;2.75;;;16.40;78.80;;;;;;5053197;28;20055;-59
2021/05/21 12:09:08;;;;;;;5.60;2.53;;;16.40;78.80;;;;;;5053585;28;20037;-62
2021/05/21 12:11:36;;;;;;;4.53;2.25;;;16.30;78.80;;;;;;5051580;28;20509;-60
2021/05/21 12:14:06;;;;;;;7.05;2.53;;;16.30;78.80;;;;;;5053463;28;20352;-61
2021/05/21 12:16:34;;;;;;;6.53;2.65;;;16.30;78.80;;;;;;5053125;28;20028;-61
2021/05/21 12:19:03;;;;;;;6.90;2.55;;;16.30;78.90;;;;;;5053168;28;20053;-63
2021/05/21 12:21:34;;;;;;;5.05;2.88;;;16.30;78.90;;;;;;5052883;28;20044;-61
2021/05/21 12:24:03;;;;;;;5.00;2.47;;;16.30;79.00;;;;;;5052746;28;20452;-58
2021/05/21 12:26:33;;;;;;;6.03;3.20;;;16.30;79.00;;;;;;5052280;28;20033;-59
2021/05/21 12:29:06;;;;;;;7.72;3.20;;;16.20;79.00;;;;;;5052570;28;20040;-62
2021/05/21 12:31:37;;;;;;;4.45;2.22;;;16.20;79.10;;;;;;5052917;28;20110;-58
2021/05/21 12:34:06;;;;;;;6.20;2.65;;;16.20;79.10;;;;;;5052595;28;20475;-58
2021/05/21 12:36:34;;;;;;;5.20;2.90;;;16.20;79.20;;;;;;5052302;28;20041;-61
2021/05/21 12:39:06;;;;;;;6.93;3.13;;;16.20;79.10;;;;;;5052599;28;20082;-61
2021/05/21 12:41:35;;;;;;;7.75;3.67;;;16.10;79.20;;;;;;5052910;28;20039;-59
2021/05/21 12:44:14;;;;;;;8.43;3.53;;;16.10;79.20;;;;;;5050897;28;20028;-56
2021/05/21 12:46:51;;;;;;;5.80;2.78;;;16.10;79.30;;;;;;5052693;28;20013;-54
2021/05/21 12:49:24;;;;;;;5.88;2.95;;;16.10;79.40;;;;;;5052524;28;20506;-55
2021/05/21 12:51:57;;;;;;;7.50;3.45;;;16.10;79.40;;;;;;5052616;28;20495;-52
2021/05/21 12:54:31;;;;;;;5.38;3.08;;;16.10;79.40;;;;;;5052252;28;20047;-56
2021/05/21 12:57:06;;;;;;;7.30;3.30;;;16.10;79.40;;;;;;5052757;28;20376;-52
2021/05/21 12:59:36;;;;;;;6.22;3.25;;;16.00;79.40;;;;;;5051457;28;20021;-55
2021/05/21 13:02:05;;;;;;;7.65;3.75;;;16.00;79.50;;;;;;5052418;28;20437;-53